sensor_id;sensor_type;location;lat;lon;timestamp;temperature;humidity
63371;DHT22;49504;48.336;14.472;2023-02-22T00:00:14;25.70;41.70
63371;DHT22;49504;48.336;14.472;2023-02-22T00:03:37;25.70;41.60
63371;DHT22;49504;48.336;14.472;2023-02-22T00:07:01;25.70;41.60
63371;DHT22;49504;48.336;14.472;2023-02-22T00:10:24;25.70;42.30
63371;DHT22;49504;48.336;14.472;2023-02-22T00:14:10;25.70;41.10
63371;DHT22;49504;48.336;14.472;2023-02-22T00:17:33;25.70;41.70
63371;DHT22;49504;48.336;14.472;2023-02-22T00:20:55;25.70;41.60
63371;DHT22;49504;48.336;14.472;2023-02-22T00:24:18;25.70;41.70
63371;DHT22;49504;48.336;14.472;2023-02-22T00:27:40;25.70;41.70
63371;DHT22;49504;48.336;14.472;2023-02-22T00:33:33;25.70;41.10
63371;DHT22;49504;48.336;14.472;2023-02-22T00:36:57;25.60;41.60
63371;DHT22;49504;48.336;14.472;2023-02-22T00:40:22;25.70;41.70
63371;DHT22;49504;48.336;14.472;2023-02-22T00:43:47;25.70;41.60
63371;DHT22;49504;48.336;14.472;2023-02-22T00:47:10;25.70;41.60
63371;DHT22;49504;48.336;14.472;2023-02-22T00:50:34;25.70;41.60
63371;DHT22;49504;48.336;14.472;2023-02-22T00:53:57;25.70;41.60
63371;DHT22;49504;48.336;14.472;2023-02-22T00:57:20;25.60;41.50
63371;DHT22;49504;48.336;14.472;2023-02-22T01:00:43;25.70;41.60
63371;DHT22;49504;48.336;14.472;2023-02-22T01:04:06;25.70;41.60
63371;DHT22;49504;48.336;14.472;2023-02-22T01:07:31;25.70;42.30
63371;DHT22;49504;48.336;14.472;2023-02-22T01:10:53;25.60;41.50
63371;DHT22;49504;48.336;14.472;2023-02-22T01:14:16;25.60;41.60
63371;DHT22;49504;48.336;14.472;2023-02-22T01:17:39;25.70;41.60
63371;DHT22;49504;48.336;14.472;2023-02-22T01:21:01;25.70;41.60
63371;DHT22;49504;48.336;14.472;2023-02-22T01:24:26;25.60;41.50
63371;DHT22;49504;48.336;14.472;2023-02-22T01:27:50;25.60;42.20
63371;DHT22;49504;48.336;14.472;2023-02-22T01:31:13;25.70;41.60
63371;DHT22;49504;48.336;14.472;2023-02-22T01:34:38;25.70;41.50
63371;DHT22;49504;48.336;14.472;2023-02-22T01:37:59;25.70;41.50
63371;DHT22;49504;48.336;14.472;2023-02-22T01:41:22;25.70;41.60
63371;DHT22;49504;48.336;14.472;2023-02-22T01:44:44;25.60;41.50
63371;DHT22;49504;48.336;14.472;2023-02-22T01:48:14;25.60;41.50
63371;DHT22;49504;48.336;14.472;2023-02-22T01:51:41;25.60;41.50
63371;DHT22;49504;48.336;14.472;2023-02-22T01:55:06;25.70;41.60
63371;DHT22;49504;48.336;14.472;2023-02-22T01:58:31;25.70;41.70
63371;DHT22;49504;48.336;14.472;2023-02-22T02:01:55;25.70;41.70
63371;DHT22;49504;48.336;14.472;2023-02-22T02:05:19;25.70;41.70
63371;DHT22;49504;48.336;14.472;2023-02-22T02:08:51;25.70;41.70
63371;DHT22;49504;48.336;14.472;2023-02-22T02:12:18;25.70;41.70
63371;DHT22;49504;48.336;14.472;2023-02-22T02:16:51;25.60;41.00
63371;DHT22;49504;48.336;14.472;2023-02-22T02:20:18;25.60;41.60
63371;DHT22;49504;48.336;14.472;2023-02-22T02:24:14;25.70;41.70
63371;DHT22;49504;48.336;14.472;2023-02-22T02:32:19;25.60;41.60
63371;DHT22;49504;48.336;14.472;2023-02-22T02:35:50;25.60;41.60
63371;DHT22;49504;48.336;14.472;2023-02-22T02:39:22;25.60;41.70
63371;DHT22;49504;48.336;14.472;2023-02-22T02:42:52;25.60;41.70
63371;DHT22;49504;48.336;14.472;2023-02-22T02:46:24;25.60;41.70
63371;DHT22;49504;48.336;14.472;2023-02-22T02:49:54;25.60;41.70
63371;DHT22;49504;48.336;14.472;2023-02-22T02:53:24;25.60;41.70
63371;DHT22;49504;48.336;14.472;2023-02-22T02:56:47;25.60;41.70
63371;DHT22;49504;48.336;14.472;2023-02-22T03:00:14;25.60;41.70
63371;DHT22;49504;48.336;14.472;2023-02-22T03:03:51;25.60;41.70
63371;DHT22;49504;48.336;14.472;2023-02-22T03:07:44;25.60;41.60
63371;DHT22;49504;48.336;14.472;2023-02-22T03:11:15;25.60;41.60
63371;DHT22;49504;48.336;14.472;2023-02-22T03:15:28;25.60;41.10
63371;DHT22;49504;48.336;14.472;2023-02-22T03:19:32;25.60;41.00
63371;DHT22;49504;48.336;14.472;2023-02-22T03:23:03;25.60;41.60
63371;DHT22;49504;48.336;14.472;2023-02-22T03:26:34;25.60;41.60
63371;DHT22;49504;48.336;14.472;2023-02-22T03:30:03;25.60;41.60
63371;DHT22;49504;48.336;14.472;2023-02-22T03:36:42;25.60;41.00
63371;DHT22;49504;48.336;14.472;2023-02-22T03:43:44;25.60;41.50
63371;DHT22;49504;48.336;14.472;2023-02-22T03:47:13;25.60;41.60
63371;DHT22;49504;48.336;14.472;2023-02-22T03:50:39;25.60;41.50
63371;DHT22;49504;48.336;14.472;2023-02-22T03:54:04;25.60;41.60
63371;DHT22;49504;48.336;14.472;2023-02-22T03:57:34;25.60;41.50
63371;DHT22;49504;48.336;14.472;2023-02-22T04:00:59;25.60;41.60
63371;DHT22;49504;48.336;14.472;2023-02-22T04:04:22;25.60;41.60
63371;DHT22;49504;48.336;14.472;2023-02-22T04:07:46;25.60;41.60
63371;DHT22;49504;48.336;14.472;2023-02-22T04:11:12;25.60;41.50
63371;DHT22;49504;48.336;14.472;2023-02-22T04:14:36;25.60;41.50
63371;DHT22;49504;48.336;14.472;2023-02-22T04:17:59;25.60;41.60
63371;DHT22;49504;48.336;14.472;2023-02-22T04:25:07;25.60;41.00
63371;DHT22;49504;48.336;14.472;2023-02-22T04:28:30;25.60;41.70
63371;DHT22;49504;48.336;14.472;2023-02-22T04:33:16;25.60;41.00
63371;DHT22;49504;48.336;14.472;2023-02-22T04:36:39;25.60;41.60
63371;DHT22;49504;48.336;14.472;2023-02-22T04:40:03;25.60;41.60
63371;DHT22;49504;48.336;14.472;2023-02-22T04:43:29;25.60;41.70
63371;DHT22;49504;48.336;14.472;2023-02-22T04:47:00;25.60;41.60
63371;DHT22;49504;48.336;14.472;2023-02-22T04:50:37;25.60;41.20
63371;DHT22;49504;48.336;14.472;2023-02-22T04:54:01;25.60;41.20
63371;DHT22;49504;48.336;14.472;2023-02-22T04:57:29;25.60;41.20
63371;DHT22;49504;48.336;14.472;2023-02-22T05:00:53;25.60;41.20
63371;DHT22;49504;48.336;14.472;2023-02-22T05:04:16;25.60;41.20
63371;DHT22;49504;48.336;14.472;2023-02-22T05:07:40;25.60;41.20
63371;DHT22;49504;48.336;14.472;2023-02-22T05:11:05;25.60;41.20
63371;DHT22;49504;48.336;14.472;2023-02-22T05:14:28;25.60;41.30
63371;DHT22;49504;48.336;14.472;2023-02-22T05:17:53;25.60;41.20
63371;DHT22;49504;48.336;14.472;2023-02-22T05:21:16;25.60;41.20
63371;DHT22;49504;48.336;14.472;2023-02-22T05:24:41;25.60;41.10
63371;DHT22;49504;48.336;14.472;2023-02-22T05:28:41;25.60;40.70
63371;DHT22;49504;48.336;14.472;2023-02-22T05:32:04;25.60;41.20
63371;DHT22;49504;48.336;14.472;2023-02-22T05:35:31;25.60;41.40
63371;DHT22;49504;48.336;14.472;2023-02-22T05:38:53;25.60;41.20
63371;DHT22;49504;48.336;14.472;2023-02-22T05:42:19;25.60;41.10
63371;DHT22;49504;48.336;14.472;2023-02-22T05:45:43;25.60;41.20
63371;DHT22;49504;48.336;14.472;2023-02-22T05:49:06;25.60;41.20
63371;DHT22;49504;48.336;14.472;2023-02-22T05:54:18;25.60;40.50
63371;DHT22;49504;48.336;14.472;2023-02-22T05:59:52;25.60;40.40
63371;DHT22;49504;48.336;14.472;2023-02-22T06:03:15;25.60;40.40
63371;DHT22;49504;48.336;14.472;2023-02-22T06:06:38;25.60;40.30
63371;DHT22;49504;48.336;14.472;2023-02-22T06:10:00;25.60;39.50
63371;DHT22;49504;48.336;14.472;2023-02-22T06:13:24;25.50;39.00
63371;DHT22;49504;48.336;14.472;2023-02-22T06:17:08;25.50;39.00
63371;DHT22;49504;48.336;14.472;2023-02-22T06:20:41;25.50;39.10
63371;DHT22;49504;48.336;14.472;2023-02-22T06:24:13;25.50;38.60
63371;DHT22;49504;48.336;14.472;2023-02-22T06:27:35;25.50;38.30
63371;DHT22;49504;48.336;14.472;2023-02-22T06:30:56;25.50;38.10
63371;DHT22;49504;48.336;14.472;2023-02-22T06:34:19;25.40;37.90
63371;DHT22;49504;48.336;14.472;2023-02-22T06:39:38;25.40;37.90
63371;DHT22;49504;48.336;14.472;2023-02-22T06:43:00;25.40;37.80
63371;DHT22;49504;48.336;14.472;2023-02-22T06:49:06;25.40;38.00
63371;DHT22;49504;48.336;14.472;2023-02-22T06:52:27;25.40;38.20
63371;DHT22;49504;48.336;14.472;2023-02-22T06:55:49;25.40;38.60
63371;DHT22;49504;48.336;14.472;2023-02-22T06:59:13;25.40;39.10
63371;DHT22;49504;48.336;14.472;2023-02-22T07:02:34;25.40;39.40
63371;DHT22;49504;48.336;14.472;2023-02-22T07:05:56;25.40;39.50
63371;DHT22;49504;48.336;14.472;2023-02-22T07:09:17;25.40;39.50
63371;DHT22;49504;48.336;14.472;2023-02-22T07:12:39;25.30;39.40
63371;DHT22;49504;48.336;14.472;2023-02-22T07:16:00;25.40;39.70
63371;DHT22;49504;48.336;14.472;2023-02-22T07:19:21;25.40;39.80
63371;DHT22;49504;48.336;14.472;2023-02-22T07:22:44;25.40;39.90
63371;DHT22;49504;48.336;14.472;2023-02-22T07:26:05;25.40;40.10
63371;DHT22;49504;48.336;14.472;2023-02-22T07:29:26;25.40;40.10
63371;DHT22;49504;48.336;14.472;2023-02-22T07:32:47;25.40;40.20
63371;DHT22;49504;48.336;14.472;2023-02-22T07:36:09;25.40;40.30
63371;DHT22;49504;48.336;14.472;2023-02-22T07:39:31;25.40;40.30
63371;DHT22;49504;48.336;14.472;2023-02-22T07:42:54;25.40;40.40
63371;DHT22;49504;48.336;14.472;2023-02-22T07:46:17;25.40;40.30
63371;DHT22;49504;48.336;14.472;2023-02-22T07:49:38;25.40;40.50
63371;DHT22;49504;48.336;14.472;2023-02-22T07:53:00;25.40;40.50
63371;DHT22;49504;48.336;14.472;2023-02-22T07:56:24;25.40;40.50
63371;DHT22;49504;48.336;14.472;2023-02-22T07:59:45;25.40;40.50
63371;DHT22;49504;48.336;14.472;2023-02-22T08:03:07;25.40;40.30
63371;DHT22;49504;48.336;14.472;2023-02-22T08:06:30;25.40;40.20
63371;DHT22;49504;48.336;14.472;2023-02-22T08:09:51;25.50;40.20
63371;DHT22;49504;48.336;14.472;2023-02-22T08:13:14;25.50;40.10
63371;DHT22;49504;48.336;14.472;2023-02-22T08:16:35;25.50;40.00
63371;DHT22;49504;48.336;14.472;2023-02-22T08:19:56;25.50;40.10
63371;DHT22;49504;48.336;14.472;2023-02-22T10:35:45;25.80;42.20
63371;DHT22;49504;48.336;14.472;2023-02-22T10:39:15;25.90;42.30
63371;DHT22;49504;48.336;14.472;2023-02-22T10:42:40;25.90;42.30
63371;DHT22;49504;48.336;14.472;2023-02-22T10:46:03;25.90;42.40
63371;DHT22;49504;48.336;14.472;2023-02-22T10:49:29;26.00;42.50
63371;DHT22;49504;48.336;14.472;2023-02-22T10:52:55;26.00;42.40
63371;DHT22;49504;48.336;14.472;2023-02-22T10:56:18;26.00;42.50
63371;DHT22;49504;48.336;14.472;2023-02-22T10:59:40;26.00;42.50
63371;DHT22;49504;48.336;14.472;2023-02-22T11:03:05;26.00;42.50
63371;DHT22;49504;48.336;14.472;2023-02-22T11:10:05;26.10;41.80
63371;DHT22;49504;48.336;14.472;2023-02-22T11:13:31;26.20;42.50
63371;DHT22;49504;48.336;14.472;2023-02-22T11:16:54;26.10;42.60
63371;DHT22;49504;48.336;14.472;2023-02-22T11:20:17;26.20;42.70
63371;DHT22;49504;48.336;14.472;2023-02-22T11:23:41;26.20;42.70
63371;DHT22;49504;48.336;14.472;2023-02-22T11:27:05;26.20;42.70
63371;DHT22;49504;48.336;14.472;2023-02-22T11:30:28;26.20;42.70
63371;DHT22;49504;48.336;14.472;2023-02-22T11:33:53;26.20;42.70
63371;DHT22;49504;48.336;14.472;2023-02-22T11:40:44;26.30;42.20
63371;DHT22;49504;48.336;14.472;2023-02-22T11:44:19;26.30;42.80
63371;DHT22;49504;48.336;14.472;2023-02-22T11:47:53;26.30;42.70
63371;DHT22;49504;48.336;14.472;2023-02-22T11:51:23;26.40;42.80
63371;DHT22;49504;48.336;14.472;2023-02-22T11:55:00;26.40;42.80
63371;DHT22;49504;48.336;14.472;2023-02-22T11:58:41;26.40;42.80
63371;DHT22;49504;48.336;14.472;2023-02-22T12:02:22;26.40;42.80
63371;DHT22;49504;48.336;14.472;2023-02-22T12:06:03;26.40;43.50
63371;DHT22;49504;48.336;14.472;2023-02-22T12:09:37;26.50;42.90
63371;DHT22;49504;48.336;14.472;2023-02-22T12:13:14;26.40;42.80
63371;DHT22;49504;48.336;14.472;2023-02-22T12:16:59;26.50;42.90
63371;DHT22;49504;48.336;14.472;2023-02-22T12:20:29;26.50;42.80
63371;DHT22;49504;48.336;14.472;2023-02-22T12:23:57;26.50;42.90
63371;DHT22;49504;48.336;14.472;2023-02-22T12:27:25;26.50;42.90
63371;DHT22;49504;48.336;14.472;2023-02-22T12:30:54;26.50;42.90
63371;DHT22;49504;48.336;14.472;2023-02-22T12:34:28;26.50;42.90
63371;DHT22;49504;48.336;14.472;2023-02-22T12:38:00;26.60;42.90
63371;DHT22;49504;48.336;14.472;2023-02-22T12:41:27;26.60;43.00
63371;DHT22;49504;48.336;14.472;2023-02-22T12:47:45;26.60;42.30
63371;DHT22;49504;48.336;14.472;2023-02-22T12:51:24;26.60;43.00
63371;DHT22;49504;48.336;14.472;2023-02-22T12:54:52;26.70;43.00
63371;DHT22;49504;48.336;14.472;2023-02-22T12:58:20;26.60;43.00
63371;DHT22;49504;48.336;14.472;2023-02-22T13:01:48;26.60;43.00
63371;DHT22;49504;48.336;14.472;2023-02-22T13:05:15;26.60;42.90
63371;DHT22;49504;48.336;14.472;2023-02-22T13:08:43;26.70;43.00
63371;DHT22;49504;48.336;14.472;2023-02-22T13:12:16;26.70;43.10
63371;DHT22;49504;48.336;14.472;2023-02-22T13:15:44;26.70;43.00
63371;DHT22;49504;48.336;14.472;2023-02-22T13:19:17;26.70;43.10
63371;DHT22;49504;48.336;14.472;2023-02-22T13:22:51;26.70;43.00
63371;DHT22;49504;48.336;14.472;2023-02-22T13:26:22;26.70;43.00
63371;DHT22;49504;48.336;14.472;2023-02-22T13:29:47;26.70;43.00
63371;DHT22;49504;48.336;14.472;2023-02-22T13:34:54;26.70;42.40
63371;DHT22;49504;48.336;14.472;2023-02-22T13:43:18;26.70;43.00
63371;DHT22;49504;48.336;14.472;2023-02-22T13:47:17;26.70;42.80
63371;DHT22;49504;48.336;14.472;2023-02-22T13:51:04;26.70;42.60
63371;DHT22;49504;48.336;14.472;2023-02-22T13:54:35;26.70;43.20
63371;DHT22;49504;48.336;14.472;2023-02-22T13:58:01;26.70;42.40
63371;DHT22;49504;48.336;14.472;2023-02-22T14:01:41;26.70;42.40
63371;DHT22;49504;48.336;14.472;2023-02-22T14:09:44;26.70;42.50
63371;DHT22;49504;48.336;14.472;2023-02-22T14:13:07;26.70;42.60
63371;DHT22;49504;48.336;14.472;2023-02-22T14:16:30;26.60;42.70
63371;DHT22;49504;48.336;14.472;2023-02-22T14:20:19;26.70;42.70
63371;DHT22;49504;48.336;14.472;2023-02-22T14:23:46;26.60;42.70
63371;DHT22;49504;48.336;14.472;2023-02-22T14:27:11;26.70;42.70
63371;DHT22;49504;48.336;14.472;2023-02-22T14:30:36;26.70;42.60
63371;DHT22;49504;48.336;14.472;2023-02-22T14:34:03;26.70;42.60
63371;DHT22;49504;48.336;14.472;2023-02-22T14:37:32;26.70;42.60
63371;DHT22;49504;48.336;14.472;2023-02-22T14:40:57;26.70;42.60
63371;DHT22;49504;48.336;14.472;2023-02-22T14:44:24;26.70;42.70
63371;DHT22;49504;48.336;14.472;2023-02-22T14:47:54;26.70;42.70
63371;DHT22;49504;48.336;14.472;2023-02-22T14:51:20;26.70;42.60
63371;DHT22;49504;48.336;14.472;2023-02-22T14:58:38;26.70;42.70
63371;DHT22;49504;48.336;14.472;2023-02-22T15:02:10;26.70;42.70
63371;DHT22;49504;48.336;14.472;2023-02-22T15:05:37;26.70;42.80
63371;DHT22;49504;48.336;14.472;2023-02-22T15:09:06;26.60;42.70
63371;DHT22;49504;48.336;14.472;2023-02-22T15:12:28;26.60;42.90
63371;DHT22;49504;48.336;14.472;2023-02-22T15:15:54;26.70;43.20
63371;DHT22;49504;48.336;14.472;2023-02-22T15:19:23;26.70;43.20
63371;DHT22;49504;48.336;14.472;2023-02-22T15:22:45;26.60;44.00
63371;DHT22;49504;48.336;14.472;2023-02-22T15:26:16;26.70;44.50
63371;DHT22;49504;48.336;14.472;2023-02-22T15:29:45;26.70;44.50
63371;DHT22;49504;48.336;14.472;2023-02-22T15:33:17;26.60;44.40
63371;DHT22;49504;48.336;14.472;2023-02-22T15:36:47;26.60;44.30
63371;DHT22;49504;48.336;14.472;2023-02-22T15:40:15;26.60;45.10
63371;DHT22;49504;48.336;14.472;2023-02-22T15:43:40;26.60;45.00
63371;DHT22;49504;48.336;14.472;2023-02-22T15:47:08;26.60;45.80
63371;DHT22;49504;48.336;14.472;2023-02-22T15:50:35;26.60;45.60
63371;DHT22;49504;48.336;14.472;2023-02-22T15:54:06;26.60;45.80
63371;DHT22;49504;48.336;14.472;2023-02-22T15:57:29;26.60;45.10
63371;DHT22;49504;48.336;14.472;2023-02-22T16:02:59;26.60;44.40
63371;DHT22;49504;48.336;14.472;2023-02-22T16:06:27;26.60;45.30
63371;DHT22;49504;48.336;14.472;2023-02-22T16:09:52;26.60;45.10
63371;DHT22;49504;48.336;14.472;2023-02-22T16:13:20;26.60;45.20
63371;DHT22;49504;48.336;14.472;2023-02-22T16:22:26;26.60;44.80
63371;DHT22;49504;48.336;14.472;2023-02-22T16:26:23;26.60;44.80
63371;DHT22;49504;48.336;14.472;2023-02-22T16:30:16;26.60;44.80
63371;DHT22;49504;48.336;14.472;2023-02-22T16:33:45;26.60;44.70
63371;DHT22;49504;48.336;14.472;2023-02-22T16:37:21;26.50;44.60
63371;DHT22;49504;48.336;14.472;2023-02-22T16:41:01;26.50;44.40
63371;DHT22;49504;48.336;14.472;2023-02-22T16:44:27;26.50;44.30
63371;DHT22;49504;48.336;14.472;2023-02-22T16:47:50;26.50;44.50
63371;DHT22;49504;48.336;14.472;2023-02-22T16:51:19;26.50;44.40
63371;DHT22;49504;48.336;14.472;2023-02-22T16:54:48;26.50;44.40
63371;DHT22;49504;48.336;14.472;2023-02-22T16:58:19;26.50;44.50
63371;DHT22;49504;48.336;14.472;2023-02-22T17:01:42;26.50;44.30
63371;DHT22;49504;48.336;14.472;2023-02-22T17:05:12;26.40;44.40
63371;DHT22;49504;48.336;14.472;2023-02-22T19:04:39;26.60;43.80
63371;DHT22;49504;48.336;14.472;2023-02-22T19:08:01;26.60;43.60
63371;DHT22;49504;48.336;14.472;2023-02-22T19:11:23;26.60;43.60
63371;DHT22;49504;48.336;14.472;2023-02-22T19:14:45;26.50;43.70
63371;DHT22;49504;48.336;14.472;2023-02-22T19:18:07;26.50;44.20
63371;DHT22;49504;48.336;14.472;2023-02-22T19:21:31;26.50;43.90
63371;DHT22;49504;48.336;14.472;2023-02-22T19:24:55;26.50;44.20
63371;DHT22;49504;48.336;14.472;2023-02-22T19:28:17;26.50;44.20
63371;DHT22;49504;48.336;14.472;2023-02-22T19:31:39;26.50;44.00
63371;DHT22;49504;48.336;14.472;2023-02-22T19:35:00;26.40;44.00
63371;DHT22;49504;48.336;14.472;2023-02-22T19:38:22;26.40;43.80
63371;DHT22;49504;48.336;14.472;2023-02-22T19:41:46;26.40;44.50
63371;DHT22;49504;48.336;14.472;2023-02-22T19:45:08;26.40;43.80
63371;DHT22;49504;48.336;14.472;2023-02-22T19:48:29;26.40;43.80
63371;DHT22;49504;48.336;14.472;2023-02-22T19:51:50;26.40;43.80
63371;DHT22;49504;48.336;14.472;2023-02-22T19:55:13;26.40;43.80
63371;DHT22;49504;48.336;14.472;2023-02-22T19:58:38;26.30;43.70
63371;DHT22;49504;48.336;14.472;2023-02-22T20:02:03;26.30;43.70
63371;DHT22;49504;48.336;14.472;2023-02-22T20:05:24;26.40;43.80
63371;DHT22;49504;48.336;14.472;2023-02-22T20:10:38;26.30;43.40
63371;DHT22;49504;48.336;14.472;2023-02-22T20:13:59;26.30;43.80
63371;DHT22;49504;48.336;14.472;2023-02-22T20:17:20;26.30;43.80
63371;DHT22;49504;48.336;14.472;2023-02-22T20:20:41;26.30;43.70
63371;DHT22;49504;48.336;14.472;2023-02-22T20:24:05;26.30;43.80
63371;DHT22;49504;48.336;14.472;2023-02-22T20:27:28;26.30;43.90
63371;DHT22;49504;48.336;14.472;2023-02-22T20:30:50;26.30;43.80
63371;DHT22;49504;48.336;14.472;2023-02-22T20:34:11;26.30;43.80
63371;DHT22;49504;48.336;14.472;2023-02-22T20:37:33;26.30;43.70
63371;DHT22;49504;48.336;14.472;2023-02-22T20:40:54;26.30;43.70
63371;DHT22;49504;48.336;14.472;2023-02-22T20:44:17;26.30;43.80
63371;DHT22;49504;48.336;14.472;2023-02-22T20:47:39;26.30;43.90
63371;DHT22;49504;48.336;14.472;2023-02-22T20:51:04;26.20;44.00
63371;DHT22;49504;48.336;14.472;2023-02-22T20:54:26;26.20;43.80
63371;DHT22;49504;48.336;14.472;2023-02-22T20:57:47;26.20;43.70
63371;DHT22;49504;48.336;14.472;2023-02-22T21:01:12;26.20;43.60
63371;DHT22;49504;48.336;14.472;2023-02-22T21:04:33;26.20;43.70
63371;DHT22;49504;48.336;14.472;2023-02-22T21:10:39;26.20;43.20
63371;DHT22;49504;48.336;14.472;2023-02-22T21:14:01;26.20;43.70
63371;DHT22;49504;48.336;14.472;2023-02-22T21:17:23;26.20;43.70
63371;DHT22;49504;48.336;14.472;2023-02-22T21:20:44;26.10;43.60
63371;DHT22;49504;48.336;14.472;2023-02-22T21:26:25;26.20;43.10
63371;DHT22;49504;48.336;14.472;2023-02-22T21:33:43;26.20;43.10
63371;DHT22;49504;48.336;14.472;2023-02-22T21:37:04;26.20;43.40
63371;DHT22;49504;48.336;14.472;2023-02-22T21:40:25;26.20;43.40
63371;DHT22;49504;48.336;14.472;2023-02-22T21:43:48;26.20;43.40
63371;DHT22;49504;48.336;14.472;2023-02-22T21:47:10;26.10;43.30
63371;DHT22;49504;48.336;14.472;2023-02-22T21:50:32;26.10;43.30
63371;DHT22;49504;48.336;14.472;2023-02-22T21:53:54;26.20;43.40
63371;DHT22;49504;48.336;14.472;2023-02-22T21:57:15;26.10;43.20
63371;DHT22;49504;48.336;14.472;2023-02-22T22:00:36;26.10;43.20
63371;DHT22;49504;48.336;14.472;2023-02-22T22:03:57;26.10;43.20
63371;DHT22;49504;48.336;14.472;2023-02-22T22:07:20;26.20;43.20
63371;DHT22;49504;48.336;14.472;2023-02-22T22:12:52;26.10;42.70
63371;DHT22;49504;48.336;14.472;2023-02-22T22:16:15;26.10;43.10
63371;DHT22;49504;48.336;14.472;2023-02-22T22:19:37;26.10;43.10
63371;DHT22;49504;48.336;14.472;2023-02-22T22:22:58;26.10;43.00
63371;DHT22;49504;48.336;14.472;2023-02-22T22:26:20;26.10;43.00
63371;DHT22;49504;48.336;14.472;2023-02-22T22:29:43;26.10;43.00
63371;DHT22;49504;48.336;14.472;2023-02-22T22:33:04;26.10;43.00
63371;DHT22;49504;48.336;14.472;2023-02-22T22:36:26;26.10;43.00
63371;DHT22;49504;48.336;14.472;2023-02-22T22:39:47;26.10;43.00
63371;DHT22;49504;48.336;14.472;2023-02-22T22:43:08;26.10;42.90
63371;DHT22;49504;48.336;14.472;2023-02-22T22:46:31;26.10;43.00
63371;DHT22;49504;48.336;14.472;2023-02-22T22:49:52;26.10;43.10
63371;DHT22;49504;48.336;14.472;2023-02-22T22:53:13;26.10;43.20
63371;DHT22;49504;48.336;14.472;2023-02-22T22:56:35;26.10;43.20
63371;DHT22;49504;48.336;14.472;2023-02-22T22:59:57;26.10;43.20
63371;DHT22;49504;48.336;14.472;2023-02-22T23:03:19;26.10;43.20
63371;DHT22;49504;48.336;14.472;2023-02-22T23:06:43;26.10;43.20
63371;DHT22;49504;48.336;14.472;2023-02-22T23:10:05;26.10;43.20
63371;DHT22;49504;48.336;14.472;2023-02-22T23:13:26;26.10;43.20
63371;DHT22;49504;48.336;14.472;2023-02-22T23:16:49;26.10;43.20
63371;DHT22;49504;48.336;14.472;2023-02-22T23:20:13;26.10;43.30
63371;DHT22;49504;48.336;14.472;2023-02-22T23:23:34;26.10;43.20
63371;DHT22;49504;48.336;14.472;2023-02-22T23:26:55;26.10;43.20
63371;DHT22;49504;48.336;14.472;2023-02-22T23:30:17;26.10;43.20
63371;DHT22;49504;48.336;14.472;2023-02-22T23:33:39;26.10;43.20
63371;DHT22;49504;48.336;14.472;2023-02-22T23:37:01;26.10;43.20
63371;DHT22;49504;48.336;14.472;2023-02-22T23:40:23;26.10;43.20
63371;DHT22;49504;48.336;14.472;2023-02-22T23:43:44;26.00;43.20
63371;DHT22;49504;48.336;14.472;2023-02-22T23:47:05;26.10;43.30
63371;DHT22;49504;48.336;14.472;2023-02-22T23:50:28;26.00;43.20
63371;DHT22;49504;48.336;14.472;2023-02-22T23:53:53;26.10;43.30
63371;DHT22;49504;48.336;14.472;2023-02-22T23:57:14;26.10;43.30
